Time;durP1;ratioP1;P1;durP2;ratioP2;P2;SDS_P1;SDS_P2;PMS_P1;PMS_P2;Temp;Humidity;BMP_temperature;BMP_pressure;BME280_temperature;BME280_humidity;BME280_pressure;Samples;Min_cycle;Max_cycle;Signal;HPM_P1;HPM_P2
2023/01/07 00:00:08;;;;;;;;;;;12.70;99.90;;;;;;5053732;28;19908;-69
2023/01/07 00:02:34;;;;;;;;;;;12.80;99.90;;;;;;5071496;28;19947;-71
2023/01/07 00:04:59;;;;;;;;;;;12.80;99.90;;;;;;5071625;28;20317;-70
2023/01/07 00:07:25;;;;;;;;;;;12.80;99.90;;;;;;5053159;28;19912;-69
2023/01/07 00:09:51;;;;;;;;;;;12.80;99.90;;;;;;5053983;28;20148;-70
2023/01/07 00:12:18;;;;;;;;;;;12.80;99.90;;;;;;5071363;28;20350;-70
2023/01/07 00:14:44;;;;;;;;;;;12.90;99.90;;;;;;5071701;28;19904;-70
2023/01/07 00:17:09;;;;;;;;;;;12.80;99.90;;;;;;5071364;28;20210;-70
2023/01/07 00:19:36;;;;;;;;;;;12.90;99.90;;;;;;5071637;28;19904;-69
2023/01/07 00:22:02;;;;;;;;;;;12.90;99.90;;;;;;5071452;28;19958;-71
2023/01/07 00:24:28;;;;;;;;;;;12.80;99.90;;;;;;5071541;28;19904;-70
2023/01/07 00:26:55;;;;;;;;;;;12.80;99.90;;;;;;5053270;28;19909;-70
2023/01/07 00:29:21;;;;;;;;;;;12.80;99.90;;;;;;5071580;28;20257;-69
2023/01/07 00:31:47;;;;;;;;;;;12.90;99.90;;;;;;5042167;28;19909;-70
2023/01/07 00:34:13;;;;;;;;;;;12.80;99.90;;;;;;5051151;28;20012;-69
2023/01/07 00:36:43;;;;;;;;;;;12.80;99.90;;;;;;5049531;28;19959;-70
2023/01/07 00:39:15;;;;;;;;;;;12.80;99.90;;;;;;5050877;28;19954;-70
2023/01/07 00:42:52;;;;;;;;;;;12.80;99.90;;;;;;5068234;28;19912;-70
2023/01/07 00:44:30;;;;;;;;;;;12.70;99.90;;;;;;5058107;28;19909;-69
2023/01/07 00:46:59;;;;;;;;;;;12.70;99.90;;;;;;5074876;28;19904;-69
2023/01/07 00:49:28;;;;;;;;;;;12.60;99.90;;;;;;5074645;28;19959;-69
2023/01/07 00:51:54;;;;;;;;;;;12.60;99.90;;;;;;5056401;28;19954;-70
2023/01/07 00:54:21;;;;;;;;;;;12.50;99.90;;;;;;5074166;28;19905;-69
2023/01/07 00:56:48;;;;;;;;;;;12.50;99.90;;;;;;5074116;28;20014;-69
2023/01/07 00:59:14;;;;;;;;;;;12.50;99.90;;;;;;5074582;28;19943;-69
2023/01/07 01:01:40;;;;;;;;;;;12.40;99.90;;;;;;5074090;28;19982;-70
2023/01/07 01:04:07;;;;;;;;;;;12.40;99.90;;;;;;5074414;28;19904;-69
2023/01/07 01:06:33;;;;;;;;;;;12.30;99.90;;;;;;5073968;28;19904;-69
2023/01/07 01:08:59;;;;;;;;;;;12.30;99.90;;;;;;5073647;28;19919;-69
2023/01/07 01:11:25;;;;;;;;;;;12.20;99.90;;;;;;5086637;28;20334;-69
2023/01/07 01:13:51;;;;;;;;;;;12.20;99.90;;;;;;5094072;28;20122;-69
2023/01/07 01:16:17;;;;;;;;;;;12.20;99.90;;;;;;5094264;28;19976;-71
2023/01/07 01:18:44;;;;;;;;;;;12.20;99.90;;;;;;5093782;28;19904;-70
2023/01/07 01:21:11;;;;;;;;;;;12.10;99.90;;;;;;5093942;28;19904;-69
2023/01/07 01:23:37;;;;;;;;;;;12.10;99.90;;;;;;5093812;28;19939;-69
2023/01/07 01:26:07;;;;;;;;;;;12.10;99.90;;;;;;5093773;28;19999;-69
2023/01/07 01:28:33;;;;;;;;;;;12.00;99.90;;;;;;5093793;28;20072;-69
2023/01/07 01:30:59;;;;;;;;;;;12.00;99.90;;;;;;5089297;28;20410;-69
2023/01/07 01:33:25;;;;;;;;;;;12.00;99.90;;;;;;5073345;28;19926;-69
2023/01/07 01:35:52;;;;;;;;;;;12.00;99.90;;;;;;5073399;28;19904;-69
2023/01/07 01:38:19;;;;;;;;;;;11.90;99.90;;;;;;5073231;28;19915;-69
2023/01/07 01:40:46;;;;;;;;;;;11.90;99.90;;;;;;5073638;28;19961;-68
2023/01/07 01:43:29;;;;;;;;;;;11.90;99.90;;;;;;5073397;28;19994;-70
2023/01/07 01:45:56;;;;;;;;;;;11.80;99.90;;;;;;5072993;28;19915;-68
2023/01/07 01:48:22;;;;;;;;;;;11.90;99.90;;;;;;5073118;28;19963;-69
2023/01/07 01:50:49;;;;;;;;;;;11.80;99.90;;;;;;5073021;28;19994;-69
2023/01/07 01:53:35;;;;;;;;;;;11.80;99.90;;;;;;5071264;28;20286;-70
2023/01/07 01:56:08;;;;;;;;;;;11.80;99.90;;;;;;5078240;28;20046;-69
2023/01/07 01:58:35;;;;;;;;;;;11.80;99.90;;;;;;5093246;28;19904;-69
2023/01/07 02:01:01;;;;;;;;;;;11.80;99.90;;;;;;5074783;28;19959;-69
2023/01/07 02:03:30;;;;;;;;;;;11.80;99.90;;;;;;5093057;28;20332;-69
2023/01/07 02:05:55;;;;;;;;;;;11.80;99.90;;;;;;5093355;28;20248;-69
2023/01/07 02:08:22;;;;;;;;;;;11.80;99.90;;;;;;5092647;28;20363;-67
2023/01/07 02:10:53;;;;;;;;;;;11.80;99.90;;;;;;5074778;28;19916;-70
2023/01/07 02:13:37;;;;;;;;;;;11.90;99.90;;;;;;5093102;28;20325;-70
2023/01/07 02:16:09;;;;;;;;;;;11.90;99.90;;;;;;5075021;28;20050;-69
2023/01/07 02:18:35;;;;;;;;;;;12.00;99.90;;;;;;5092866;28;19908;-68
2023/01/07 02:21:07;;;;;;;;;;;12.00;99.90;;;;;;5093012;28;20091;-69
2023/01/07 02:23:39;;;;;;;;;;;12.00;99.90;;;;;;5092261;28;19977;-69
2023/01/07 02:26:07;;;;;;;;;;;12.00;99.90;;;;;;5092414;28;19991;-69
2023/01/07 02:28:36;;;;;;;;;;;11.90;99.90;;;;;;5092878;28;19910;-70
2023/01/07 02:31:27;;;;;;;;;;;11.90;99.90;;;;;;5092693;28;19912;-69
2023/01/07 02:34:23;;;;;;;;;;;11.90;99.90;;;;;;5092409;28;19915;-69
2023/01/07 02:36:48;;;;;;;;;;;11.80;99.90;;;;;;4990645;28;20008;-69
2023/01/07 02:39:30;;;;;;;;;;;11.80;99.90;;;;;;4990372;28;19980;-69
2023/01/07 02:42:04;;;;;;;;;;;11.80;99.90;;;;;;4990588;28;19909;-69
2023/01/07 02:44:45;;;;;;;;;;;11.80;99.90;;;;;;4990881;28;19913;-69
2023/01/07 02:47:10;;;;;;;;;;;11.70;99.90;;;;;;4990679;28;19910;-69
2023/01/07 02:49:36;;;;;;;;;;;11.70;99.90;;;;;;4990653;28;20243;-69
2023/01/07 02:52:31;;;;;;;;;;;11.70;99.90;;;;;;4990352;28;20215;-69
2023/01/07 02:55:17;;;;;;;;;;;11.70;99.90;;;;;;4990466;28;19922;-69
2023/01/07 02:57:45;;;;;;;;;;;11.60;99.90;;;;;;4990167;28;19961;-69
2023/01/07 03:00:21;;;;;;;;;;;11.70;99.90;;;;;;4990288;28;19988;-69
2023/01/07 03:02:47;;;;;;;;;;;11.60;99.90;;;;;;4990144;28;20237;-69
2023/01/07 03:05:15;;;;;;;;;;;11.50;99.90;;;;;;4973846;28;20000;-70
2023/01/07 03:08:05;;;;;;;;;;;11.50;99.90;;;;;;4990293;28;19905;-69
2023/01/07 03:10:37;;;;;;;;;;;11.60;99.90;;;;;;4989887;28;19913;-69
2023/01/07 03:13:10;;;;;;;;;;;11.50;99.90;;;;;;5001520;28;19995;-70
2023/01/07 03:15:42;;;;;;;;;;;11.50;99.90;;;;;;5029488;28;19905;-69
2023/01/07 03:18:14;;;;;;;;;;;11.50;99.90;;;;;;5029532;28;19912;-69
2023/01/07 03:20:43;;;;;;;;;;;11.50;99.90;;;;;;5049351;28;19905;-70
2023/01/07 03:23:11;;;;;;;;;;;11.50;99.90;;;;;;5049389;28;19924;-70
2023/01/07 03:25:43;;;;;;;;;;;11.40;99.90;;;;;;5049409;28;19951;-69
2023/01/07 03:28:10;;;;;;;;;;;11.50;99.90;;;;;;5049560;28;19908;-69
2023/01/07 03:30:37;;;;;;;;;;;11.40;99.90;;;;;;5056315;28;19912;-69
2023/01/07 03:33:23;;;;;;;;;;;11.50;99.90;;;;;;5071517;28;19915;-70
2023/01/07 03:35:50;;;;;;;;;;;11.40;99.90;;;;;;5070844;28;19954;-70
2023/01/07 03:38:17;;;;;;;;;;;11.40;99.90;;;;;;5071093;28;19911;-71
2023/01/07 03:40:43;;;;;;;;;;;11.40;99.90;;;;;;5078413;28;19904;-70
2023/01/07 03:43:12;;;;;;;;;;;11.40;99.90;;;;;;5091644;28;20275;-70
2023/01/07 03:45:38;;;;;;;;;;;11.40;99.90;;;;;;5073158;28;20362;-69
2023/01/07 03:48:04;;;;;;;;;;;11.50;99.90;;;;;;5091705;28;19989;-69
2023/01/07 03:50:32;;;;;;;;;;;11.50;99.90;;;;;;5089947;28;20504;-68
2023/01/07 03:52:58;;;;;;;;;;;11.40;99.90;;;;;;5091266;28;19904;-69
2023/01/07 03:55:24;;;;;;;;;;;11.50;99.90;;;;;;5090895;28;19967;-70
2023/01/07 03:57:49;;;;;;;;;;;11.50;99.90;;;;;;5091370;28;19912;-69
2023/01/07 04:00:17;;;;;;;;;;;11.50;99.90;;;;;;5090398;28;19908;-69
2023/01/07 04:02:43;;;;;;;;;;;11.50;99.90;;;;;;5036999;28;19908;-70
2023/01/07 04:05:09;;;;;;;;;;;11.60;99.90;;;;;;5071353;28;19912;-70
2023/01/07 04:07:35;;;;;;;;;;;11.60;99.90;;;;;;5069994;28;20007;-69
2023/01/07 04:10:01;;;;;;;;;;;11.60;99.90;;;;;;5053790;28;19952;-69
2023/01/07 04:12:28;;;;;;;;;;;11.70;99.90;;;;;;5072123;28;19911;-69
2023/01/07 04:14:53;;;;;;;;;;;11.70;99.90;;;;;;5053495;28;19904;-69
2023/01/07 04:17:19;;;;;;;;;;;11.70;99.90;;;;;;5075026;28;19914;-69
2023/01/07 04:19:45;;;;;;;;;;;11.60;99.90;;;;;;5075554;28;19909;-69
2023/01/07 04:22:11;;;;;;;;;;;11.60;99.90;;;;;;5075970;28;20285;-69
2023/01/07 04:24:37;;;;;;;;;;;11.60;99.90;;;;;;5057626;28;19954;-69
2023/01/07 04:27:03;;;;;;;;;;;11.60;99.90;;;;;;5076251;28;20007;-69
2023/01/07 04:29:29;;;;;;;;;;;11.60;99.90;;;;;;5075618;28;19935;-70
2023/01/07 04:31:55;;;;;;;;;;;11.60;99.90;;;;;;5075511;28;19905;-69
2023/01/07 04:34:21;;;;;;;;;;;11.60;99.90;;;;;;5075575;28;19912;-69
2023/01/07 04:36:47;;;;;;;;;;;11.60;99.90;;;;;;5075753;28;19967;-65
2023/01/07 04:39:12;;;;;;;;;;;11.60;99.90;;;;;;5075455;28;19911;-69
2023/01/07 04:41:38;;;;;;;;;;;11.60;99.90;;;;;;5085460;28;19904;-69
2023/01/07 04:44:04;;;;;;;;;;;11.60;99.90;;;;;;5095962;28;19954;-69
2023/01/07 04:46:30;;;;;;;;;;;11.60;99.90;;;;;;5095803;28;19965;-69
2023/01/07 04:48:56;;;;;;;;;;;11.60;99.90;;;;;;5095745;28;19958;-69
2023/01/07 04:51:22;;;;;;;;;;;11.50;99.90;;;;;;5095697;28;19911;-69
2023/01/07 04:53:47;;;;;;;;;;;11.50;99.90;;;;;;5077336;28;19955;-69
2023/01/07 04:56:13;;;;;;;;;;;11.60;99.90;;;;;;5095832;28;19934;-70
2023/01/07 04:58:40;;;;;;;;;;;11.60;99.90;;;;;;5095439;28;19948;-69
2023/01/07 05:01:07;;;;;;;;;;;11.60;99.90;;;;;;5095702;28;19904;-68
2023/01/07 05:03:33;;;;;;;;;;;11.60;99.90;;;;;;5095491;28;20352;-69
2023/01/07 05:06:00;;;;;;;;;;;11.50;99.90;;;;;;5095336;28;19926;-66
2023/01/07 05:08:25;;;;;;;;;;;11.50;99.90;;;;;;5095210;28;20284;-69
2023/01/07 05:10:52;;;;;;;;;;;11.60;99.90;;;;;;5087484;28;19916;-69
2023/01/07 05:13:18;;;;;;;;;;;11.60;99.90;;;;;;5075479;28;19958;-71
2023/01/07 05:15:44;;;;;;;;;;;11.60;99.90;;;;;;5074967;28;19950;-69
2023/01/07 05:18:11;;;;;;;;;;;11.70;99.90;;;;;;5075566;28;19904;-69
2023/01/07 05:20:37;;;;;;;;;;;11.80;99.90;;;;;;5075048;28;19951;-69
2023/01/07 05:23:07;;;;;;;;;;;11.80;99.90;;;;;;5075130;28;20318;-68
2023/01/07 05:25:33;;;;;;;;;;;11.80;99.90;;;;;;5056706;28;20011;-69
2023/01/07 05:27:58;;;;;;;;;;;11.90;99.90;;;;;;5073739;28;19939;-69
2023/01/07 05:30:25;;;;;;;;;;;11.90;99.90;;;;;;5074550;28;20213;-70
2023/01/07 05:32:51;;;;;;;;;;;12.00;99.90;;;;;;5074610;28;19904;-69
2023/01/07 05:35:17;;;;;;;;;;;12.00;99.90;;;;;;5075015;28;20053;-69
2023/01/07 05:37:43;;;;;;;;;;;12.00;99.90;;;;;;5074484;28;20374;-69
2023/01/07 05:40:10;;;;;;;;;;;12.00;99.90;;;;;;5076620;28;19904;-68
2023/01/07 05:42:36;;;;;;;;;;;12.00;99.90;;;;;;5078401;28;19916;-69
2023/01/07 05:45:02;;;;;;;;;;;12.00;99.90;;;;;;5071711;28;19981;-70
2023/01/07 05:47:27;;;;;;;;;;;12.00;99.90;;;;;;5069795;28;19915;-69
2023/01/07 05:49:53;;;;;;;;;;;12.00;99.90;;;;;;5074922;28;20348;-71
2023/01/07 05:52:19;;;;;;;;;;;12.00;99.90;;;;;;5074445;28;19904;-69
2023/01/07 05:54:45;;;;;;;;;;;12.00;99.90;;;;;;5055465;28;19908;-70
2023/01/07 05:57:11;;;;;;;;;;;12.10;99.90;;;;;;5074063;28;19916;-69
2023/01/07 05:59:36;;;;;;;;;;;12.10;99.90;;;;;;5074593;28;19904;-69
2023/01/07 06:02:02;;;;;;;;;;;12.10;99.90;;;;;;5061268;28;20309;-70
2023/01/07 06:04:28;;;;;;;;;;;12.00;99.90;;;;;;5054028;28;20337;-70
2023/01/07 06:06:55;;;;;;;;;;;12.00;99.90;;;;;;5054077;28;19911;-70
2023/01/07 06:09:21;;;;;;;;;;;12.00;99.90;;;;;;5053917;28;19909;-71
2023/01/07 06:11:47;;;;;;;;;;;12.00;99.90;;;;;;5064932;28;19908;-70
2023/01/07 06:14:13;;;;;;;;;;;12.00;99.90;;;;;;5073859;28;20356;-70
2023/01/07 06:16:41;;;;;;;;;;;11.90;99.90;;;;;;5073484;28;19911;-69
2023/01/07 06:19:07;;;;;;;;;;;11.80;99.90;;;;;;5056133;28;19908;-69
2023/01/07 06:21:33;;;;;;;;;;;11.80;99.90;;;;;;5072734;28;19904;-70
2023/01/07 06:23:59;;;;;;;;;;;11.80;99.90;;;;;;5073790;28;20334;-70
2023/01/07 06:26:25;;;;;;;;;;;11.80;99.90;;;;;;5073854;28;19911;-69
2023/01/07 06:28:55;;;;;;;;;;;11.80;99.90;;;;;;5073331;28;20270;-69
2023/01/07 06:31:20;;;;;;;;;;;11.80;99.90;;;;;;5073125;28;19905;-68
2023/01/07 06:33:47;;;;;;;;;;;11.90;99.90;;;;;;5073025;28;19904;-69
2023/01/07 06:36:13;;;;;;;;;;;11.90;99.90;;;;;;5073076;28;19947;-70
2023/01/07 06:38:40;;;;;;;;;;;11.90;99.90;;;;;;5072770;28;19939;-70
2023/01/07 06:41:06;;;;;;;;;;;11.90;99.90;;;;;;5073528;28;19912;-69
2023/01/07 06:43:33;;;;;;;;;;;11.90;99.90;;;;;;5073004;28;19904;-70
2023/01/07 06:45:58;;;;;;;;;;;11.90;99.90;;;;;;5073336;28;19904;-68
2023/01/07 06:48:24;;;;;;;;;;;12.00;99.90;;;;;;5072801;28;19904;-70
2023/01/07 06:50:50;;;;;;;;;;;12.00;99.90;;;;;;5073006;28;19919;-71
2023/01/07 06:53:20;;;;;;;;;;;12.00;99.90;;;;;;5072630;28;19908;-70
2023/01/07 06:55:48;;;;;;;;;;;12.10;99.90;;;;;;5072331;28;20336;-69
2023/01/07 06:58:16;;;;;;;;;;;12.10;99.90;;;;;;5072780;28;19916;-70
2023/01/07 07:00:42;;;;;;;;;;;12.20;99.90;;;;;;5070812;28;19905;-70
2023/01/07 07:03:07;;;;;;;;;;;12.20;99.90;;;;;;5052615;28;19911;-70
2023/01/07 07:05:33;;;;;;;;;;;12.20;99.90;;;;;;5052453;28;19908;-71
2023/01/07 07:08:00;;;;;;;;;;;12.30;99.90;;;;;;5052776;28;19992;-70
2023/01/07 07:10:26;;;;;;;;;;;12.30;99.90;;;;;;5056978;28;19923;-69
2023/01/07 07:12:52;;;;;;;;;;;12.30;99.90;;;;;;5072152;28;19904;-70
2023/01/07 07:15:18;;;;;;;;;;;12.30;99.90;;;;;;5072661;28;20363;-70
2023/01/07 07:17:45;;;;;;;;;;;12.40;99.90;;;;;;5072711;28;20027;-71
2023/01/07 07:20:12;;;;;;;;;;;12.50;99.90;;;;;;5072569;28;19962;-71
2023/01/07 07:22:43;;;;;;;;;;;12.50;99.90;;;;;;5073049;28;19908;-70
2023/01/07 07:25:08;;;;;;;;;;;12.40;99.90;;;;;;5072274;28;19951;-70
2023/01/07 07:27:38;;;;;;;;;;;12.40;99.90;;;;;;5072364;28;20049;-71
2023/01/07 07:30:13;;;;;;;;;;;12.40;99.90;;;;;;5072263;28;19935;-71
2023/01/07 07:32:39;;;;;;;;;;;12.40;99.90;;;;;;5072558;28;19904;-71
2023/01/07 07:35:08;;;;;;;;;;;12.50;99.90;;;;;;5071632;28;19916;-71
2023/01/07 07:37:36;;;;;;;;;;;12.50;99.90;;;;;;5072515;28;19911;-71
2023/01/07 07:40:06;;;;;;;;;;;12.60;99.90;;;;;;5072269;28;19995;-71
2023/01/07 07:42:37;;;;;;;;;;;12.60;99.90;;;;;;5090049;28;19904;-66
2023/01/07 07:45:09;;;;;;;;;;;12.60;99.90;;;;;;5092372;28;19911;-71
2023/01/07 07:47:37;;;;;;;;;;;12.60;99.90;;;;;;5092777;28;19904;-70
2023/01/07 07:50:03;;;;;;;;;;;12.70;99.90;;;;;;5092250;28;19956;-70
2023/01/07 07:52:30;;;;;;;;;;;12.70;99.90;;;;;;5095779;28;20258;-72
2023/01/07 07:54:56;;;;;;;;;;;12.80;99.90;;;;;;5096162;28;20003;-71
2023/01/07 07:57:21;;;;;;;;;;;12.90;99.90;;;;;;5096185;28;19999;-71
2023/01/07 07:59:47;;;;;;;;;;;12.90;99.90;;;;;;5078112;28;19904;-70
2023/01/07 08:02:14;;;;;;;;;;;12.90;99.90;;;;;;5087723;28;19910;-71
2023/01/07 08:04:40;;;;;;;;;;;12.90;99.90;;;;;;5078409;28;19915;-72
2023/01/07 08:07:09;;;;;;;;;;;13.00;99.90;;;;;;5096258;28;19911;-70
2023/01/07 08:09:35;;;;;;;;;;;13.00;99.90;;;;;;5095912;28;20377;-71
2023/01/07 08:12:00;;;;;;;;;;;13.00;99.90;;;;;;5096183;28;19908;-71
2023/01/07 08:14:26;;;;;;;;;;;13.10;99.90;;;;;;5096699;28;19915;-70
2023/01/07 08:16:52;;;;;;;;;;;13.10;99.90;;;;;;5096104;28;20267;-71
2023/01/07 08:19:18;;;;;;;;;;;13.00;99.90;;;;;;5095951;28;19965;-71
2023/01/07 08:21:44;;;;;;;;;;;13.10;99.90;;;;;;5094486;28;20352;-69
2023/01/07 08:24:09;;;;;;;;;;;13.20;99.90;;;;;;5095816;28;19904;-71
2023/01/07 08:26:35;;;;;;;;;;;13.30;99.90;;;;;;5077613;28;19966;-70
2023/01/07 08:29:01;;;;;;;;;;;13.30;99.90;;;;;;5095837;28;20022;-70
2023/01/07 08:31:28;;;;;;;;;;;13.40;99.90;;;;;;5095375;28;19908;-73
2023/01/07 08:33:59;;;;;;;;;;;13.40;99.90;;;;;;5095930;28;19965;-71
2023/01/07 08:36:25;;;;;;;;;;;13.50;99.90;;;;;;5096095;28;19910;-70
2023/01/07 08:38:51;;;;;;;;;;;13.50;99.90;;;;;;5095877;28;19998;-72
2023/01/07 08:41:18;;;;;;;;;;;13.60;99.90;;;;;;5095666;28;20339;-70
2023/01/07 08:43:43;;;;;;;;;;;13.60;99.90;;;;;;5096055;28;19908;-71
2023/01/07 08:46:10;;;;;;;;;;;13.70;99.90;;;;;;5095387;28;19911;-70
2023/01/07 08:48:40;;;;;;;;;;;13.90;99.90;;;;;;5094817;28;19947;-70
2023/01/07 08:51:06;;;;;;;;;;;14.10;99.90;;;;;;5095045;28;19963;-70
2023/01/07 08:53:32;;;;;;;;;;;14.30;99.90;;;;;;5094753;28;19912;-72
2023/01/07 08:55:57;;;;;;;;;;;14.50;99.90;;;;;;5094724;28;19912;-70
2023/01/07 08:58:24;;;;;;;;;;;14.50;99.90;;;;;;5093127;28;19951;-69
2023/01/07 09:00:51;;;;;;;;;;;14.60;99.90;;;;;;5074042;28;19970;-71
2023/01/07 09:03:16;;;;;;;;;;;14.70;99.90;;;;;;5093429;28;19950;-71
2023/01/07 09:05:43;;;;;;;;;;;14.90;99.90;;;;;;5093885;28;19904;-72
2023/01/07 09:08:08;;;;;;;;;;;14.90;99.90;;;;;;5093456;28;19904;-71
2023/01/07 09:10:34;;;;;;;;;;;14.90;99.90;;;;;;5068592;28;19919;-70
2023/01/07 09:13:00;;;;;;;;;;;14.90;99.90;;;;;;5053016;28;20351;-71
2023/01/07 09:15:26;;;;;;;;;;;14.80;99.90;;;;;;5051564;28;19909;-71
2023/01/07 09:17:52;;;;;;;;;;;14.90;99.90;;;;;;5053724;28;19908;-71
2023/01/07 09:20:19;;;;;;;;;;;15.00;99.90;;;;;;5052689;28;20022;-71
2023/01/07 09:22:45;;;;;;;;;;;15.20;99.90;;;;;;5052282;28;20003;-71
2023/01/07 09:25:11;;;;;;;;;;;15.40;99.90;;;;;;5053280;28;19955;-72
2023/01/07 09:27:38;;;;;;;;;;;15.50;99.90;;;;;;5035451;28;20452;-70
2023/01/07 09:30:06;;;;;;;;;;;15.50;99.90;;;;;;5053300;28;20019;-71
2023/01/07 09:32:33;;;;;;;;;;;15.70;99.90;;;;;;5070548;28;20322;-71
2023/01/07 09:34:58;;;;;;;;;;;15.90;99.90;;;;;;5073463;28;19947;-71
2023/01/07 09:37:24;;;;;;;;;;;16.10;99.90;;;;;;5073892;28;19911;-71
2023/01/07 09:39:51;;;;;;;;;;;16.00;99.90;;;;;;5073297;28;19912;-72
2023/01/07 09:42:43;;;;;;;;;;;16.00;99.90;;;;;;5075257;28;20358;-70
2023/01/07 09:45:12;;;;;;;;;;;16.00;99.90;;;;;;5075465;28;20057;-71
2023/01/07 09:47:42;;;;;;;;;;;16.30;99.90;;;;;;5094107;28;20347;-68
2023/01/07 09:50:18;;;;;;;;;;;16.30;99.90;;;;;;5092846;28;19914;-71
2023/01/07 09:52:47;;;;;;;;;;;16.50;99.90;;;;;;5093031;28;20030;-71
2023/01/07 09:55:13;;;;;;;;;;;16.70;99.90;;;;;;5074537;28;19984;-71
2023/01/07 09:57:47;;;;;;;;;;;17.00;99.90;;;;;;5038626;28;1565882;-71
2023/01/07 10:00:16;;;;;;;;;;;17.10;99.90;;;;;;5094320;28;20372;-72
2023/01/07 10:02:48;;;;;;;;;;;16.80;99.90;;;;;;5075287;28;19904;-66
2023/01/07 10:05:24;;;;;;;;;;;16.90;99.90;;;;;;5073983;28;19912;-71
2023/01/07 10:07:50;;;;;;;;;;;16.60;99.90;;;;;;5073720;28;19904;-70
2023/01/07 10:10:15;;;;;;;;;;;16.70;99.90;;;;;;5076259;28;19919;-71
2023/01/07 10:13:04;;;;;;;;;;;17.00;99.90;;;;;;5093903;28;19977;-72
2023/01/07 10:15:29;;;;;;;;;;;16.90;99.90;;;;;;5093424;28;19904;-71
2023/01/07 10:18:05;;;;;;;;;;;17.00;99.90;;;;;;5093967;28;19995;-72
2023/01/07 10:20:41;;;;;;;;;;;16.80;99.90;;;;;;5093625;28;19910;-73
2023/01/07 10:23:12;;;;;;;;;;;16.60;99.90;;;;;;5093578;28;19912;-70
2023/01/07 10:25:52;;;;;;;;;;;16.80;99.90;;;;;;5093452;28;19904;-72
2023/01/07 10:28:27;;;;;;;;;;;17.20;99.90;;;;;;5094231;28;20011;-71
2023/01/07 10:30:53;;;;;;;;;;;17.20;99.90;;;;;;5089842;28;19974;-70
2023/01/07 10:33:19;;;;;;;;;;;17.20;99.90;;;;;;5073523;28;20272;-70
2023/01/07 10:35:47;;;;;;;;;;;17.30;99.90;;;;;;5073139;28;19904;-71
2023/01/07 10:38:17;;;;;;;;;;;17.80;99.90;;;;;;5073085;28;19904;-71
2023/01/07 10:40:45;;;;;;;;;;;17.80;99.90;;;;;;5079502;28;20308;-71
2023/01/07 10:43:22;;;;;;;;;;;17.90;99.90;;;;;;5093685;28;19946;-71
2023/01/07 10:45:51;;;;;;;;;;;18.10;99.90;;;;;;5093351;28;20267;-71
2023/01/07 10:48:34;;;;;;;;;;;18.20;99.90;;;;;;5092802;28;19930;-70
2023/01/07 10:51:09;;;;;;;;;;;17.90;99.90;;;;;;5093706;28;19946;-69
2023/01/07 10:53:42;;;;;;;;;;;17.80;99.90;;;;;;5089529;28;19916;-71
2023/01/07 10:56:12;;;;;;;;;;;17.70;99.90;;;;;;5052842;28;19930;-70
2023/01/07 10:58:41;;;;;;;;;;;17.60;99.90;;;;;;5052450;28;20307;-71
2023/01/07 11:01:15;;;;;;;;;;;17.80;99.90;;;;;;5052384;28;19905;-70
2023/01/07 11:03:42;;;;;;;;;;;18.10;99.90;;;;;;5061092;28;19905;-71
2023/01/07 11:06:12;;;;;;;;;;;18.30;99.90;;;;;;5072486;28;20001;-70
2023/01/07 11:08:39;;;;;;;;;;;18.60;99.90;;;;;;5072706;28;19935;-71
2023/01/07 11:11:06;;;;;;;;;;;18.80;99.90;;;;;;5082182;28;19924;-71
2023/01/07 11:13:35;;;;;;;;;;;18.90;99.90;;;;;;5093114;28;20356;-70
2023/01/07 11:16:06;;;;;;;;;;;18.50;99.90;;;;;;5092588;28;19904;-71
2023/01/07 11:18:47;;;;;;;;;;;18.40;99.90;;;;;;5092616;28;19904;-72
2023/01/07 11:21:29;;;;;;;;;;;17.80;99.90;;;;;;5092839;28;19911;-71
2023/01/07 11:23:57;;;;;;;;;;;17.70;99.90;;;;;;5086370;28;20005;-71
2023/01/07 11:26:27;;;;;;;;;;;17.90;99.90;;;;;;5072014;28;19938;-71
2023/01/07 11:28:54;;;;;;;;;;;18.30;99.90;;;;;;5072411;28;19912;-70
2023/01/07 11:31:22;;;;;;;;;;;18.50;99.90;;;;;;5064830;28;19908;-70
2023/01/07 11:33:53;;;;;;;;;;;18.80;99.90;;;;;;5052000;28;19905;-70
2023/01/07 11:36:37;;;;;;;;;;;19.00;99.90;;;;;;5052016;28;20014;-72
2023/01/07 11:39:35;;;;;;;;;;;19.00;99.90;;;;;;5034325;28;19944;-71
2023/01/07 11:42:37;;;;;;;;;;;19.20;99.90;;;;;;4988056;28;19906;-71
2023/01/07 11:45:10;;;;;;;;;;;19.40;99.90;;;;;;4989730;28;20017;-72
2023/01/07 11:47:38;;;;;;;;;;;19.50;99.90;;;;;;4990181;28;20288;-70
2023/01/07 11:50:25;;;;;;;;;;;19.70;99.90;;;;;;4990043;28;19988;-70
2023/01/07 11:52:59;;;;;;;;;;;19.80;99.90;;;;;;4991525;28;20350;-70
2023/01/07 11:55:27;;;;;;;;;;;19.70;99.90;;;;;;4989530;28;19992;-65
2023/01/07 11:58:12;;;;;;;;;;;19.60;99.90;;;;;;4976277;28;20282;-66
2023/01/07 12:00:38;;;;;;;;;;;19.80;99.90;;;;;;4976131;28;19910;-69
2023/01/07 12:03:09;;;;;;;;;;;19.90;99.90;;;;;;4970241;28;20352;-65
2023/01/07 12:05:35;;;;;;;;;;;20.20;99.90;;;;;;4971915;28;20311;-69
2023/01/07 12:08:02;;;;;;;;;;;20.00;99.90;;;;;;4971482;28;19933;-68
2023/01/07 12:10:28;;;;;;;;;;;19.90;99.90;;;;;;4970999;28;19950;-72
2023/01/07 12:12:54;;;;;;;;;;;19.90;99.90;;;;;;4971622;28;20016;-67
2023/01/07 12:15:22;;;;;;;;;;;19.80;99.90;;;;;;4971611;28;19914;-71
2023/01/07 12:18:00;;;;;;;;;;;19.80;99.90;;;;;;5007609;28;20440;-71
2023/01/07 12:20:44;;;;;;;;;;;19.80;99.90;;;;;;5032895;28;19905;-71
2023/01/07 12:23:28;;;;;;;;;;;20.00;99.90;;;;;;5032541;28;19905;-71
2023/01/07 12:26:20;;;;;;;;;;;20.10;99.90;;;;;;5032471;28;19913;-71
2023/01/07 12:28:56;;;;;;;;;;;20.10;99.90;;;;;;5029630;28;19949;-70
2023/01/07 12:31:22;;;;;;;;;;;20.20;99.90;;;;;;5040100;28;20364;-71
2023/01/07 12:34:05;;;;;;;;;;;20.40;99.90;;;;;;5052674;28;19962;-70
2023/01/07 12:36:53;;;;;;;;;;;20.30;99.90;;;;;;5052278;28;19904;-72
2023/01/07 12:39:42;;;;;;;;;;;20.30;99.90;;;;;;5038090;28;19920;-71
2023/01/07 12:42:19;;;;;;;;;;;19.60;99.90;;;;;;5056734;28;19912;-71
2023/01/07 12:44:48;;;;;;;;;;;18.70;99.90;;;;;;5055914;28;19904;-70
2023/01/07 12:47:21;;;;;;;;;;;18.40;99.90;;;;;;5075934;28;20481;-71
2023/01/07 12:49:46;;;;;;;;;;;17.90;99.90;;;;;;5075159;28;19913;-71
2023/01/07 12:52:38;;;;;;;;;;;17.80;99.90;;;;;;5075907;28;19912;-70
2023/01/07 12:55:04;;;;;;;;;;;17.70;99.90;;;;;;5071193;28;19905;-71
2023/01/07 12:57:34;;;;;;;;;;;17.80;99.90;;;;;;5075443;28;20019;-72
2023/01/07 13:00:14;;;;;;;;;;;17.80;99.90;;;;;;5075481;28;19912;-71
2023/01/07 13:02:50;;;;;;;;;;;17.60;99.90;;;;;;5057477;28;20003;-71
2023/01/07 13:05:34;;;;;;;;;;;17.50;99.90;;;;;;5075956;28;19912;-71
2023/01/07 13:08:07;;;;;;;;;;;17.40;99.90;;;;;;5044721;28;19909;-71
2023/01/07 13:10:41;;;;;;;;;;;17.40;99.90;;;;;;5057436;28;20257;-71
2023/01/07 13:13:25;;;;;;;;;;;17.20;99.90;;;;;;5055643;28;20038;-68
2023/01/07 13:15:51;;;;;;;;;;;17.20;99.90;;;;;;5055303;28;19909;-71
2023/01/07 13:18:18;;;;;;;;;;;17.30;99.90;;;;;;5055545;28;20003;-72
2023/01/07 13:21:04;;;;;;;;;;;17.30;99.90;;;;;;5057664;28;19954;-72
2023/01/07 13:23:32;;;;;;;;;;;17.50;99.90;;;;;;5075973;28;19950;-72
2023/01/07 13:26:08;;;;;;;;;;;17.80;99.90;;;;;;5075564;28;19912;-72
2023/01/07 13:28:35;;;;;;;;;;;17.80;99.90;;;;;;5075385;28;19958;-72
2023/01/07 13:31:16;;;;;;;;;;;18.00;99.90;;;;;;5075367;28;20318;-72
2023/01/07 13:34:00;;;;;;;;;;;18.20;99.90;;;;;;5075702;28;19904;-72
2023/01/07 13:36:29;;;;;;;;;;;18.00;99.90;;;;;;5075454;28;19904;-72
2023/01/07 13:39:14;;;;;;;;;;;18.10;99.90;;;;;;5075481;28;19904;-69
2023/01/07 13:41:56;;;;;;;;;;;18.10;99.90;;;;;;5075438;28;19995;-69
2023/01/07 13:44:50;;;;;;;;;;;18.10;99.90;;;;;;5075069;28;19911;-71
2023/01/07 13:47:21;;;;;;;;;;;18.10;99.90;;;;;;5075340;28;19905;-72
2023/01/07 13:49:53;;;;;;;;;;;17.90;99.90;;;;;;5073907;28;19931;-71
2023/01/07 13:52:20;;;;;;;;;;;18.10;99.90;;;;;;5075040;28;20375;-71
2023/01/07 13:54:49;;;;;;;;;;;18.00;99.90;;;;;;5074822;28;19905;-72
2023/01/07 13:57:30;;;;;;;;;;;18.20;99.90;;;;;;5076720;28;19916;-71
2023/01/07 14:00:20;;;;;;;;;;;18.30;99.90;;;;;;5095802;28;19904;-68
2023/01/07 14:03:17;;;;;;;;;;;18.40;99.90;;;;;;5093531;28;20314;-73
2023/01/07 14:05:52;;;;;;;;;;;18.50;99.90;;;;;;5095603;28;20336;-73
2023/01/07 14:08:25;;;;;;;;;;;18.50;99.90;;;;;;5095277;28;19908;-68
2023/01/07 14:11:10;;;;;;;;;;;18.60;99.90;;;;;;5094841;28;19912;-73
2023/01/07 14:13:41;;;;;;;;;;;18.40;99.90;;;;;;5095508;28;19904;-73
2023/01/07 14:16:42;;;;;;;;;;;18.40;99.90;;;;;;5076862;28;20092;-73
2023/01/07 14:19:08;;;;;;;;;;;18.50;99.90;;;;;;5095264;28;19908;-72
2023/01/07 14:21:36;;;;;;;;;;;18.50;99.90;;;;;;5094705;28;20278;-73
2023/01/07 14:24:12;;;;;;;;;;;18.40;99.90;;;;;;5094642;28;20346;-72
2023/01/07 14:26:54;;;;;;;;;;;18.40;99.90;;;;;;5094851;28;19939;-70
2023/01/07 14:29:35;;;;;;;;;;;18.10;99.90;;;;;;5094420;28;19908;-69
2023/01/07 14:32:20;;;;;;;;;;;17.90;99.90;;;;;;5094258;28;19934;-70